• Join FlightAware (Why Join?)
  • Login
  • US Flag GB Flag 
10:34 EDT


 

Airport Tracker/Info


-or-


 

Live Flight TrackerFlight Track Log ✈ N77VZ ✈ 18-Aug-2013 ✈ KSVH - KAPF

Flight Track Log - Related Links

Times and Time Zones

All times are in EDT time to prevent confusion due to time zone crossing. See the N77VZ flight status page for this flight to view local times or setup timezone preferences in your user account.

Time Position Orientation Groundspeed Altitude Reporting Facility
EDT Latitude Longitude Course Direction KTS MPH feet Rate Location/Type
15:57 35.7664 -81.0136 194° South 365 420 2,500  Level Atlanta Center
15:58 35.7686 -81.1031 272° West 317 365 5,400 2,640 Climbing Atlanta Center
15:59 35.7747 -81.1847 275° West 262 302 7,800 2,100 Climbing Atlanta Center
16:00 35.7789 -81.2717 273° West 252 290 9,700 1,860 Climbing Atlanta Center
16:01 35.3429 -80.9938 194° South  Level Estimated
16:01 35.7642 -81.3567 258° West 252 290 11,600  Level Atlanta Center
16:02 35.6936 -81.3844 198° South 227 261 13,300 1,800 Climbing Atlanta Center
16:03 35.6147 -81.3947 186° South 273 314 15,200 1,680 Climbing Atlanta Center
16:04 35.5336 -81.4075 187° South 286 329 16,700 1,260 Climbing Atlanta Center
16:05 35.4483 -81.4231 188° South 300 345 17,800 1,140 Climbing Atlanta Center
16:06 35.3631 -81.4358 187° South 312 359 19,000 1,140 Climbing Atlanta Center
16:07 35.2758 -81.4489 187° South 317 365 20,100 1,020 Climbing Atlanta Center
16:08 35.1886 -81.4669 190° South 317 365 21,100 960 Climbing Atlanta Center
16:09 35.0989 -81.4772 185° South 323 372 22,100 960 Climbing Atlanta Center
16:10 35.0097 -81.4928 188° South 323 372 23,100 960 Climbing Atlanta Center
16:11 34.9222 -81.5056 187° South 323 372 24,100 960 Climbing Atlanta Center
16:12 34.8394 -81.5358 197° South 323 372 25,100 960 Climbing Atlanta Center
16:13 34.7564 -81.5611 194° South 313 360 26,100 900 Climbing Atlanta Center
16:14 34.6839 -81.5861 196° South 313 360 26,900 900 Climbing Atlanta Center
16:15 34.6031 -81.6111 194° South 308 354 27,900 960 Climbing Atlanta Center
16:16 34.5242 -81.6336 193° South 303 349 28,900 960 Climbing Atlanta Center
16:17 34.4433 -81.6636 197° South 303 349 29,900 900 Climbing Atlanta Center
16:18 34.3625 -81.6883 194° South 298 343 30,800 900 Climbing Atlanta Center
16:19 34.2856 -81.7133 195° South 298 343 31,800 960 Climbing Atlanta Center
16:20 34.2089 -81.7353 193° South 298 343 32,800 960 Climbing Atlanta Center
16:21 34.1342 -81.7625 197° South 293 337 33,800 900 Climbing Atlanta Center
16:22 34.0594 -81.7847 194° South 287 330 34,700 900 Climbing Atlanta Center
16:23 33.9828 -81.8067 193° South 282 325 35,700 960 Climbing Atlanta Center
16:24 33.9100 -81.8311 196° South 276 318 36,700 960 Climbing Atlanta Center
16:25 33.8417 -81.8653 203° Southwest 276 318 37,700 960 Climbing Atlanta Center
16:26 33.7758 -81.9069 208° Southwest 276 318 38,700 900 Climbing Atlanta Center
16:27 33.7117 -81.9511 210° Southwest 271 312 39,600 600 Climbing Atlanta Center
16:28 33.6456 -81.9903 206° Southwest 271 312 40,000 180 Climbing Atlanta Center
16:29 33.5753 -82.0342 207° Southwest 276 318 40,000  Level Atlanta Center
16:30 33.4969 -82.0808 206° Southwest 293 337 40,100  Climbing Atlanta Center
16:31 33.4183 -82.1300 208° Southwest 308 354 40,000 -60 Descending Atlanta Center
16:32 33.3397 -82.1789 207° Southwest 321 369 40,000  Level Atlanta Center
16:33 33.2569 -82.2278 206° Southwest 321 369 40,000  Level Atlanta Center
16:34 33.1742 -82.2767 206° Southwest 321 369 40,000  Level Atlanta Center
16:35 33.0956 -82.3256 208° Southwest 321 369 40,000  Level Atlanta Center
16:36 33.0147 -82.3742 207° Southwest 321 369 40,000  Level Atlanta Center
16:37 32.9319 -82.4278 209° Southwest 321 369 40,000  Level Atlanta Center
16:38 32.8492 -82.4736 205° Southwest 326 375 40,000  Level Atlanta Center
16:39 32.7642 -82.5222 206° Southwest 331 381 40,000  Level Atlanta Center
16:40 32.6833 -82.5728 208° Southwest 331 381 40,000  Level Atlanta Center
16:41 32.6006 -82.6211 206° Southwest 336 387 40,000  Level Atlanta Center
16:42 32.5175 -82.6742 208° Southwest 336 387 40,000  Level Atlanta Center
16:45 32.3211 -82.7992 208° Southwest 334 384 40,000  Level Jacksonville Center
16:46 32.2417 -82.8533 210° Southwest 334 384 40,000  Level Jacksonville Center
16:47 32.1581 -82.9072 209° Southwest 334 384 40,000  Level Jacksonville Center
16:48 32.0789 -82.9589 209° Southwest 334 384 40,000  Level Jacksonville Center
16:49 31.9953 -83.0150 210° Southwest 334 384 40,000  Level Jacksonville Center
16:50 31.9139 -83.0689 209° Southwest 334 384 40,000  Level Jacksonville Center
16:51 31.8322 -83.1250 210° Southwest 334 384 40,000  Level Jacksonville Center
16:52 31.7508 -83.1783 209° Southwest 334 384 40,000  Level Jacksonville Center
16:53 31.6858 -83.2222 210° Southwest 334 384 40,000  Level Jacksonville Center
16:54 31.5958 -83.2828 210° Southwest 339 390 40,000 60 Level Jacksonville Center
16:55 31.5144 -83.3386 210° Southwest 339 390 40,200 300 Climbing Jacksonville Center
16:56 31.4306 -83.3917 208° Southwest 339 390 40,700 360 Climbing Jacksonville Center
16:57 31.3511 -83.4497 212° Southwest 339 390 41,000 120 Climbing Jacksonville Center
16:58 31.2672 -83.5050 209° Southwest 344 396 41,000  Level Jacksonville Center
16:59 31.1833 -83.5628 211° Southwest 349 402 41,000  Level Jacksonville Center
17:00 31.0975 -83.6206 210° Southwest 349 402 41,000  Level Jacksonville Center
17:01 31.0117 -83.6781 210° Southwest 355 409 41,000  Level Jacksonville Center
17:02 30.9278 -83.7331 209° Southwest 355 409 41,000  Level Jacksonville Center
17:03 30.8314 -83.7586 193° South 340 391 41,000  Level Jacksonville Center
17:04 30.7314 -83.7336 168° South 340 391 41,000  Level Jacksonville Center
17:05 30.6314 -83.7133 170° South 358 412 41,000  Level Jacksonville Center
17:06 30.5356 -83.6908 169° South 363 418 41,000  Level Jacksonville Center
17:07 30.4375 -83.6683 169° South 363 418 41,000  Level Jacksonville Center
17:08 30.3375 -83.6458 169° South 363 418 41,000  Level Jacksonville Center
17:09 30.2372 -83.6236 169° South 369 425 41,000  Level Jacksonville Center
17:10 30.1350 -83.6011 169° South 369 425 41,000  Level Jacksonville Center
17:11 30.0225 -83.5764 169° South 374 430 41,000  Level Jacksonville Center
17:12 29.9225 -83.5542 169° South 369 425 41,000  Level Jacksonville Center
17:13 29.8222 -83.5342 170° South 369 425 41,000  Level Jacksonville Center
17:14 29.7181 -83.5094 168° South 369 425 41,000  Level Jacksonville Center
17:15 29.6158 -83.4897 170° South 369 425 41,000  Level Jacksonville Center
17:16 29.5136 -83.4653 168° South 369 425 41,000  Level Jacksonville Center
17:17 29.4094 -83.4433 170° South 374 430 41,000  Level Jacksonville Center
17:18 29.3092 -83.4164 167° South 374 430 41,000  Level Jacksonville Center
17:19 29.2069 -83.3944 169° South 374 430 41,000  Level Jacksonville Center
17:20 29.1028 -83.3725 170° South 374 430 41,000  Level Jacksonville Center
17:21 29.0006 -83.3483 168° South 374 430 41,000 -480 Level Jacksonville Center
17:22 28.8983 -83.3383 175° South 374 430 40,100 -1,200 Descending Jacksonville Center
17:23 28.7939 -83.3450 183° South 374 430 38,700 -1,440 Descending Jacksonville Center
17:25 28.5917 -83.3517 182° South 385 443 35,800 -1,440 Descending Miami Center
17:26 28.4831 -83.3525 180° South 385 443 34,300 -1,440 Descending Miami Center
17:27 28.3783 -83.3628 185° South 385 443 33,000 -660 Descending Miami Center
17:28 28.2761 -83.3639 181° South 385 443 33,000  Level Miami Center
17:29 28.1781 -83.3700 183° South 373 429 33,000  Level Miami Center
17:30 28.0844 -83.3647 177° South 357 411 33,000  Level Miami Center
17:31 27.9914 -83.3428 168° South 343 395 33,000 -240 Level Miami Center
17:32 27.8986 -83.3236 170° South 343 395 32,600 -480 Descending Miami Center
17:33 27.8058 -83.2994 167° South 343 395 32,000 -660 Descending Miami Center
17:34 27.6900 -83.2742 169° South 350 403 31,200 -720 Descending Miami Center
17:35 27.5972 -83.2503 167° South 350 403 30,600 -660 Descending Miami Center
17:36 27.5067 -83.2242 166° South 350 403 29,900 -720 Descending Miami Center
17:37 27.4214 -83.1703 151° Southeast 345 397 29,200 -960 Descending Miami Center
17:38 27.3342 -83.1164 151° Southeast 351 404 28,000 -1,260 Descending Miami Center
17:39 27.2672 -83.0708 149° Southeast 356 410 26,700 -1,560 Descending Miami Center
17:40 27.1594 -83.0044 151° Southeast 362 417 24,900 -1,620 Descending Miami Center
17:41 27.0781 -82.9581 153° Southeast 347 399 23,500 -1,440 Descending Miami Center
17:42 26.9986 -82.9072 150° Southeast 336 387 22,100 -1,380 Descending Miami Center
17:43 26.9214 -82.8614 152° Southeast 330 380 20,800 -1,320 Descending Miami Center
17:44 26.8442 -82.8133 151° Southeast 318 366 19,500 -1,380 Descending Miami Center
17:45 26.7667 -82.7675 152° Southeast 318 366 18,100 -1,320 Descending Miami Center
17:46 26.6914 -82.7219 152° Southeast 317 365 16,900 -1,200 Descending Miami Center
17:47 26.6281 -82.6817 150° Southeast 292 336 15,800 -1,020 Descending Miami Center
17:48 26.5708 -82.6508 154° Southeast 256 295 14,900 -900 Descending Miami Center
17:49 26.5200 -82.6183 150° Southeast 230 265 14,100 -900 Descending Miami Center
17:50 26.4672 -82.5856 151° Southeast 213 245 13,100 -1,080 Descending Miami Center
17:51 26.4081 -82.5503 152° Southeast 227 261 12,000 -1,140 Descending Miami Center
17:52 26.3389 -82.5028 148° Southeast 252 290 10,900 -1,140 Descending Miami Center
17:53 26.2775 -82.4675 153° Southeast 260 299 9,800 -1,080 Descending Miami Center
17:54 26.2164 -82.4300 151° Southeast 260 299 8,800 -1,020 Descending Miami Center
17:55 26.1614 -82.3972 152° Southeast 249 287 7,800 -1,020 Descending Miami Center
17:56 26.1067 -82.3508 143° Southeast 249 287 6,800 -1,020 Descending Miami Center
17:57 26.0861 -82.2897 111° Southeast 221 254 5,800 -1,020 Descending Miami Center
17:59 26.1167 -82.1311 90° East  Level FlightAware Approximate
18:06 26.1524 -81.7756 79° East  Level Estimated
18:07 26.1524 -81.7756 79° East  Level Estimated
18:08 26.1524 -81.7756 79° East  Level Estimated
18:09 26.1524 -81.7756 79° East  Level Estimated
18:10 26.1524 -81.7756 79° East  Level Estimated
18:11 26.1524 -81.7756 79° East  Level Estimated
18:12 26.1524 -81.7756 79° East  Level Estimated
18:13 26.1524 -81.7756 79° East  Level Estimated
18:14 26.1524 -81.7756 79° East  Level Estimated
18:15 26.1524 -81.7756 79° East  Level Estimated
18:16 26.1524 -81.7756 79° East  Level Estimated
18:17 26.1524 -81.7756 79° East  Level Estimated